Shoyo — JLPT — position and weather

sailwx.info

Track history (hours):
 
Tides and Currents Weather Stations Pressure Air Temp Water Temp Dewpoint Dewpoint Depression Visibility Wind Speed Wind Dir Waves Ship Positions

Oceanographic research ship Shoyo (Japan)

Detailed information on ship capabilities available from University of Delaware's Ocean Information Center.

Last reported at 2017-Oct-31 05:16 UTC. Time now 2017-Dec-12 04:34 UTC.
Position N 34°33' E 134°47'.
Warning: this ship's position is 41 days out of date.

Length 123 m; draft 5 m.

Type: Other ship. MMSI: 431130000.

Date/timePositionNaut miles runAvg speedWind from/ knotsBaromVisibWave heightAir tempDewpointWater temp
2017-Oct-31 05:16N 34°33' E 134°47'514.8
2017-Oct-31 04:57N 34°35' E 134°52'714.0
2017-Oct-31 04:28N 34°38' E 134°60'512.1
2017-Oct-31 04:00N 34°34' E 135°05'714.5
2017-Oct-31 03:30N 34°27' E 135°03'714.1
2017-Oct-31 03:00N 34°21' E 135°00'612.3
2017-Oct-31 02:30N 34°14' E 134°59'1313.7
2017-Oct-31 01:34N 34°02' E 134°58'113.9
2017-Oct-31 01:28N 34°00' E 134°59'22411.6
2017-Oct-30 06:12N 34°53' E 139°23'313.5
2017-Oct-30 06:01N 34°55' E 139°26'714.0
2017-Oct-30 05:30N 34°59' E 139°32'714.7
2017-Oct-30 05:00N 35°04' E 139°39'715.0
2017-Oct-30 04:31N 35°10' E 139°45'713.1
2017-Oct-30 04:00N 35°16' E 139°46'612.6
2017-Oct-30 03:31N 35°22' E 139°42'714.2
2017-Oct-30 03:00N 35°27' E 139°48'612.2
2017-Oct-30 02:30N 35°33' E 139°50'510.5
2017-Oct-30 02:00N 35°37' E 139°46'0 0.2
2017-Oct-30 01:30N 35°38' E 139°46'  
2017-Oct-24 01:52N 35°38' E 139°46'0 0.0
2017-Oct-23 08:14N 35°38' E 139°46'0 0.8
2017-Oct-23 07:59N 35°37' E 139°46'1 1.6
2017-Oct-23 07:31N 35°37' E 139°46'612.1
2017-Oct-23 07:00N 35°33' E 139°52'713.1
2017-Oct-23 06:31N 35°32' E 139°60'1 0.3
2017-Oct-23 04:06N 35°33' E 140°01'0 0.0
2017-Oct-23 02:51N 35°33' E 140°01'0 0.0
2017-Oct-23 02:12N 35°33' E 140°01'0 0.0
2017-Oct-23 01:48N 35°33' E 140°01'0 0.0
2017-Oct-23 01:21N 35°33' E 140°01'0 0.0
2017-Oct-22 20:34N 35°33' E 140°00'0 0.2
2017-Oct-22 20:19N 35°33' E 140°00'0 0.0
2017-Oct-22 14:41N 35°33' E 140°00'0 0.1
2017-Oct-22 14:27N 35°33' E 140°00'0 0.0
2017-Oct-22 09:01N 35°33' E 140°00'0 3.8
2017-Oct-22 08:57N 35°33' E 140°00'3 6.5
2017-Oct-22 08:30N 35°31' E 139°57'613.1
2017-Oct-22 08:01N 35°34' E 139°50'5 9.6
2017-Oct-22 07:30N 35°38' E 139°46'0 0.1
2017-Oct-22 07:00N 35°38' E 139°46'0 0.0
2017-Oct-22 06:31N 35°38' E 139°46'0 0.0
2017-Oct-22 06:01N 35°38' E 139°46'  
Track history (hours):
 
Tides and Currents Weather Stations Pressure Air Temp Water Temp Dewpoint Dewpoint Depression Visibility Wind Speed Wind Dir Waves Ship Positions

Oceanographic research ship Shoyo (Japan)

Detailed information on ship capabilities available from University of Delaware's Ocean Information Center.

Last reported at 2017-Oct-31 05:16 UTC. Time now 2017-Dec-12 04:34 UTC.
Position N 34°33' E 134°47'.
Warning: this ship's position is 41 days out of date.

Length 123 m; draft 5 m.

Type: Other ship. MMSI: 431130000.

Date/timePositionNaut miles runAvg speedWind from/ knotsBaromVisibWave heightAir tempDewpointWater temp
2017-Oct-31 05:16N 34°33' E 134°47'514.8
2017-Oct-31 04:57N 34°35' E 134°52'714.0
2017-Oct-31 04:28N 34°38' E 134°60'512.1
2017-Oct-31 04:00N 34°34' E 135°05'714.5
2017-Oct-31 03:30N 34°27' E 135°03'714.1
2017-Oct-31 03:00N 34°21' E 135°00'612.3
2017-Oct-31 02:30N 34°14' E 134°59'1313.7
2017-Oct-31 01:34N 34°02' E 134°58'113.9
2017-Oct-31 01:28N 34°00' E 134°59'22411.6
2017-Oct-30 06:12N 34°53' E 139°23'313.5
2017-Oct-30 06:01N 34°55' E 139°26'714.0
2017-Oct-30 05:30N 34°59' E 139°32'714.7
2017-Oct-30 05:00N 35°04' E 139°39'715.0
2017-Oct-30 04:31N 35°10' E 139°45'713.1
2017-Oct-30 04:00N 35°16' E 139°46'612.6
2017-Oct-30 03:31N 35°22' E 139°42'714.2
2017-Oct-30 03:00N 35°27' E 139°48'612.2
2017-Oct-30 02:30N 35°33' E 139°50'510.5
2017-Oct-30 02:00N 35°37' E 139°46'0 0.2
2017-Oct-30 01:30N 35°38' E 139°46'  
2017-Oct-24 01:52N 35°38' E 139°46'0 0.0
2017-Oct-23 08:14N 35°38' E 139°46'0 0.8
2017-Oct-23 07:59N 35°37' E 139°46'1 1.6
2017-Oct-23 07:31N 35°37' E 139°46'612.1
2017-Oct-23 07:00N 35°33' E 139°52'713.1
2017-Oct-23 06:31N 35°32' E 139°60'1 0.3
2017-Oct-23 04:06N 35°33' E 140°01'0 0.0
2017-Oct-23 02:51N 35°33' E 140°01'0 0.0
2017-Oct-23 02:12N 35°33' E 140°01'0 0.0
2017-Oct-23 01:48N 35°33' E 140°01'0 0.0
2017-Oct-23 01:21N 35°33' E 140°01'0 0.0
2017-Oct-22 20:34N 35°33' E 140°00'0 0.2
2017-Oct-22 20:19N 35°33' E 140°00'0 0.0
2017-Oct-22 14:41N 35°33' E 140°00'0 0.1
2017-Oct-22 14:27N 35°33' E 140°00'0 0.0
2017-Oct-22 09:01N 35°33' E 140°00'0 3.8
2017-Oct-22 08:57N 35°33' E 140°00'3 6.5
2017-Oct-22 08:30N 35°31' E 139°57'613.1
2017-Oct-22 08:01N 35°34' E 139°50'5 9.6
2017-Oct-22 07:30N 35°38' E 139°46'0 0.1
2017-Oct-22 07:00N 35°38' E 139°46'0 0.0
2017-Oct-22 06:31N 35°38' E 139°46'0 0.0
2017-Oct-22 06:01N 35°38' E 139°46'  

Dump ship's entire track history